Airport Name : Wright Patterson AFB

Other Name : Wright Patterson

ICAO : KFFO

IATA : FFO

FAA : FFO

Latitude : 39.826111

Longitude : -84.048332

Country : United States

Local Date and Time : 7/23/2018 9:47:00 AM

 

TAF (Terminal Aerodrome Forecast)

TAF KFFO 231100Z 2311/2417 33009KT 9999 FEW031 BKN042 BKN200 QNH2987INS BECMG 2316/2317 02009KT 9999 BKN040 BKN200 QNH2988INS BECMG 2401/2402 VRB06KT 9999 SCT020 BKN035 QNH2992INS BECMG 2412/2413 30006KT 9999 OVC035 QNH2994INS TX25/2322Z TN17/2311Z

 

METAR (METeorological Aerodrome Report)

KFFO 231256Z 01004KT 10SM FEW020 BKN041 19/16 A2989 RMK AO2A SLP121 T01900157

KFFO 231156Z 04007KT 10SM FEW021 BKN042 18/16 A2988 RMK AO2A SLP117 T01810159 10190 20179 52014

KFFO 231056Z 33004KT 10SM FEW031 BKN042 BKN200 18/16 A2987 RMK AO2A SLP113 T01790159

KFFO 230956Z AUTO 36005KT 10SM OVC043 19/16 A2986 RMK AO2 SLP109 T01850161 $